createdAt,value
2023-12-27T00:00:57.126Z,4.62
2023-12-27T00:03:23.996Z,4.50
2023-12-27T00:05:50.781Z,4.54
2023-12-27T00:08:17.518Z,4.49
2023-12-27T00:10:44.271Z,4.43
2023-12-27T00:13:12.631Z,4.33
2023-12-27T00:15:39.397Z,4.21
2023-12-27T00:18:06.393Z,4.24
2023-12-27T00:20:33.212Z,4.26
2023-12-27T00:22:59.966Z,4.37
2023-12-27T00:25:26.668Z,4.37
2023-12-27T00:27:55.740Z,4.39
2023-12-27T00:30:24.091Z,4.33
2023-12-27T00:32:51.209Z,4.21
2023-12-27T00:35:17.990Z,4.02
2023-12-27T00:37:44.896Z,3.97
2023-12-27T00:40:12.731Z,4.00
2023-12-27T00:42:39.566Z,3.92
2023-12-27T00:45:07.066Z,4.04
2023-12-27T00:47:35.239Z,4.09
2023-12-27T00:50:02.145Z,4.11
2023-12-27T00:52:29.003Z,4.16
2023-12-27T00:54:55.716Z,4.34
2023-12-27T00:57:22.517Z,4.40
2023-12-27T00:59:49.333Z,4.42
2023-12-27T01:02:16.054Z,4.38
2023-12-27T01:04:44.170Z,4.36
2023-12-27T01:07:10.902Z,4.37
2023-12-27T01:09:37.663Z,4.33
2023-12-27T01:12:04.888Z,4.27
2023-12-27T01:14:31.647Z,4.18
2023-12-27T01:16:58.332Z,4.12
2023-12-27T01:19:25.193Z,4.12
2023-12-27T01:21:53.673Z,4.11
2023-12-27T01:24:20.420Z,4.08
2023-12-27T01:26:47.166Z,4.11
2023-12-27T01:29:15.416Z,4.13
2023-12-27T01:31:42.171Z,4.24
2023-12-27T01:34:15.641Z,4.32
2023-12-27T01:36:46.330Z,4.24
2023-12-27T01:39:14.437Z,4.16
2023-12-27T01:41:41.210Z,4.05
2023-12-27T01:44:07.913Z,4.07
2023-12-27T01:46:35.444Z,3.93
2023-12-27T01:49:02.344Z,3.88
2023-12-27T01:51:29.148Z,3.78
2023-12-27T01:53:56.493Z,3.76
2023-12-27T01:56:24.555Z,3.73
2023-12-27T01:58:51.299Z,3.81
2023-12-27T02:01:18.148Z,3.88
2023-12-27T02:03:44.996Z,3.90
2023-12-27T02:06:11.919Z,3.85
2023-12-27T02:08:38.833Z,3.82
2023-12-27T02:11:06.126Z,3.73
2023-12-27T02:13:35.247Z,3.75
2023-12-27T02:16:01.969Z,3.64
2023-12-27T02:18:29.115Z,3.63
2023-12-27T02:20:56.043Z,3.50
2023-12-27T02:23:22.824Z,3.58
2023-12-27T02:25:51.582Z,3.59
2023-12-27T02:28:18.426Z,3.55
2023-12-27T02:30:45.380Z,3.50
2023-12-27T02:33:12.416Z,3.42
2023-12-27T02:35:39.273Z,3.35
2023-12-27T02:38:06.055Z,3.32
2023-12-27T02:40:32.786Z,3.36
2023-12-27T02:43:00.991Z,3.41
2023-12-27T02:45:27.809Z,3.45
2023-12-27T02:47:54.976Z,3.49
2023-12-27T02:50:21.961Z,3.51
2023-12-27T02:52:48.639Z,3.53
2023-12-27T02:55:15.455Z,3.53
2023-12-27T02:57:42.202Z,3.59
2023-12-27T03:00:11.661Z,3.65
2023-12-27T03:02:38.435Z,3.65
2023-12-27T03:05:05.755Z,3.72
2023-12-27T03:07:32.535Z,3.53
2023-12-27T03:09:59.234Z,3.42
2023-12-27T03:12:26.045Z,3.46
2023-12-27T03:14:52.766Z,3.50
2023-12-27T03:17:20.916Z,3.46
2023-12-27T03:19:47.601Z,3.46
2023-12-27T03:22:15.121Z,3.46
2023-12-27T03:24:41.882Z,3.46
2023-12-27T03:27:08.634Z,3.36
2023-12-27T03:29:35.560Z,3.06
2023-12-27T03:32:02.228Z,2.92
2023-12-27T03:34:30.433Z,3.08
2023-12-27T03:36:57.219Z,3.18
2023-12-27T03:39:23.997Z,3.18
2023-12-27T03:41:50.816Z,3.13
2023-12-27T03:44:17.526Z,3.20
2023-12-27T03:46:44.806Z,3.25
2023-12-27T03:49:11.664Z,3.19
2023-12-27T03:51:39.874Z,3.20
2023-12-27T03:54:06.640Z,3.20
2023-12-27T03:56:33.374Z,3.32
2023-12-27T03:59:00.186Z,3.22
2023-12-27T04:01:26.971Z,3.19
2023-12-27T04:03:53.734Z,3.20
2023-12-27T04:06:20.551Z,3.10
2023-12-27T04:08:48.919Z,2.97
2023-12-27T04:11:15.637Z,2.97
2023-12-27T04:13:42.467Z,3.13
2023-12-27T04:16:09.218Z,3.28
2023-12-27T04:18:36.020Z,3.22
2023-12-27T04:21:03.035Z,3.13
2023-12-27T04:23:29.776Z,3.28
2023-12-27T04:25:57.814Z,3.24
2023-12-27T04:28:24.498Z,3.28
2023-12-27T04:30:51.357Z,3.30
2023-12-27T04:33:18.260Z,3.14
2023-12-27T04:35:45.130Z,3.18
2023-12-27T04:38:11.913Z,3.26
2023-12-27T04:40:38.645Z,3.19
2023-12-27T04:43:06.779Z,3.22
2023-12-27T04:45:33.544Z,3.16
2023-12-27T04:48:00.681Z,3.15
2023-12-27T04:50:27.884Z,3.14
2023-12-27T04:52:54.689Z,3.20
2023-12-27T04:55:21.436Z,3.19
2023-12-27T04:57:48.670Z,3.24
2023-12-27T05:00:17.179Z,3.17
2023-12-27T05:02:43.908Z,3.23
2023-12-27T05:05:10.661Z,3.20
2023-12-27T05:07:37.369Z,3.18
2023-12-27T05:10:04.718Z,3.14
2023-12-27T05:12:32.157Z,3.17
2023-12-27T05:14:59.021Z,3.16
2023-12-27T05:17:27.208Z,3.12
2023-12-27T05:19:54.139Z,3.17
2023-12-27T05:22:20.852Z,3.18
2023-12-27T05:24:47.676Z,3.07
2023-12-27T05:27:14.392Z,3.11
2023-12-27T05:29:41.137Z,3.22
2023-12-27T05:32:07.805Z,3.22
2023-12-27T05:34:35.922Z,3.27
2023-12-27T05:37:02.729Z,3.25
2023-12-27T05:39:29.436Z,3.23
2023-12-27T05:41:56.253Z,3.18
2023-12-27T05:44:22.968Z,3.17
2023-12-27T05:46:49.733Z,3.10
2023-12-27T05:49:16.505Z,3.09
2023-12-27T05:51:44.647Z,2.96
2023-12-27T05:54:11.429Z,3.01
2023-12-27T05:56:38.136Z,3.02
2023-12-27T05:59:04.842Z,2.98
2023-12-27T06:01:31.593Z,2.81
2023-12-27T06:03:58.348Z,2.90
2023-12-27T06:06:26.174Z,2.89
2023-12-27T06:08:54.225Z,2.93
2023-12-27T06:11:20.921Z,3.07
2023-12-27T06:13:48.460Z,3.03
2023-12-27T06:16:15.417Z,2.97
2023-12-27T06:18:42.306Z,3.02
2023-12-27T06:21:09.216Z,2.88
2023-12-27T06:23:35.896Z,2.70
2023-12-27T06:26:04.263Z,2.52
2023-12-27T06:28:30.991Z,2.71
2023-12-27T06:30:57.854Z,2.74
2023-12-27T06:33:24.768Z,2.78
2023-12-27T06:35:51.656Z,2.83
2023-12-27T06:38:18.399Z,3.00
2023-12-27T06:40:45.163Z,2.95
2023-12-27T06:43:13.315Z,2.86
2023-12-27T06:45:40.138Z,2.96
2023-12-27T06:48:07.512Z,2.83
2023-12-27T06:50:34.302Z,2.84
2023-12-27T06:53:01.118Z,2.80
2023-12-27T06:55:27.807Z,2.82
2023-12-27T06:57:54.602Z,2.72
2023-12-27T07:00:22.936Z,2.67
2023-12-27T07:02:49.813Z,2.65
2023-12-27T07:05:16.711Z,2.07
2023-12-27T07:07:43.452Z,2.31
2023-12-27T07:10:12.830Z,2.33
2023-12-27T07:12:40.324Z,2.40
2023-12-27T07:15:08.036Z,2.31
2023-12-27T07:17:36.169Z,2.38
2023-12-27T07:20:03.141Z,2.55
2023-12-27T07:22:31.768Z,2.45
2023-12-27T07:24:58.654Z,2.34
2023-12-27T07:27:25.475Z,2.28
2023-12-27T07:29:54.857Z,2.21
2023-12-27T07:32:22.981Z,2.30
2023-12-27T07:34:51.085Z,2.42
2023-12-27T07:37:17.850Z,2.50
2023-12-27T07:39:44.570Z,2.57
2023-12-27T07:42:11.394Z,2.43
2023-12-27T07:44:38.101Z,2.49
2023-12-27T07:47:04.857Z,2.41
2023-12-27T07:49:31.694Z,2.43
2023-12-27T07:51:59.843Z,2.46
2023-12-27T07:54:26.638Z,2.49
2023-12-27T07:56:53.416Z,2.59
2023-12-27T07:59:20.116Z,2.72
2023-12-27T08:01:46.868Z,2.75
2023-12-27T08:04:13.788Z,2.82
2023-12-27T08:06:40.694Z,2.80
2023-12-27T08:09:08.780Z,2.81
2023-12-27T08:11:35.565Z,2.76
2023-12-27T08:14:02.391Z,2.73
2023-12-27T08:16:29.144Z,2.75
2023-12-27T08:18:55.945Z,2.77
2023-12-27T08:21:22.823Z,2.80
2023-12-27T08:23:49.610Z,2.90
2023-12-27T08:26:17.646Z,2.87
2023-12-27T08:28:44.361Z,2.83
2023-12-27T08:31:11.202Z,2.71
2023-12-27T08:33:38.201Z,2.70
2023-12-27T08:36:05.742Z,2.90
2023-12-27T08:38:32.745Z,2.75
2023-12-27T08:40:59.591Z,2.62
2023-12-27T08:43:27.662Z,2.68
2023-12-27T08:45:54.508Z,2.79
2023-12-27T08:48:21.304Z,2.97
2023-12-27T08:50:48.193Z,3.10
2023-12-27T08:53:14.924Z,3.19
2023-12-27T08:55:41.640Z,3.22
2023-12-27T08:58:08.366Z,3.09
2023-12-27T09:00:36.487Z,3.26
2023-12-27T09:03:03.630Z,3.36
2023-12-27T09:05:30.553Z,3.37
2023-12-27T09:08:03.681Z,3.33
2023-12-27T09:10:37.644Z,3.40
2023-12-27T09:13:04.390Z,3.53
2023-12-27T09:15:31.189Z,3.54
2023-12-27T09:17:59.603Z,3.71
2023-12-27T09:20:26.533Z,3.76
2023-12-27T09:22:53.315Z,3.87
2023-12-27T09:25:20.228Z,3.88
2023-12-27T09:27:47.531Z,3.70
2023-12-27T09:30:14.584Z,3.78
2023-12-27T09:32:41.851Z,3.96
2023-12-27T09:35:10.071Z,4.17
2023-12-27T09:37:36.794Z,4.23
2023-12-27T09:40:03.920Z,4.31
2023-12-27T09:42:30.785Z,4.39
2023-12-27T09:44:57.571Z,4.45
2023-12-27T09:47:24.284Z,4.60
2023-12-27T09:49:51.573Z,4.23
2023-12-27T09:52:19.702Z,4.14
2023-12-27T09:54:46.402Z,4.61
2023-12-27T09:57:13.154Z,4.73
2023-12-27T09:59:41.410Z,4.86
2023-12-27T10:02:12.046Z,5.02
2023-12-27T10:04:43.239Z,5.18
2023-12-27T10:07:09.999Z,5.31
2023-12-27T10:09:38.200Z,5.37
2023-12-27T10:12:05.393Z,5.50
2023-12-27T10:14:32.379Z,5.60
2023-12-27T10:16:59.145Z,5.62
2023-12-27T10:19:37.123Z,5.60
2023-12-27T10:22:04.364Z,5.69
2023-12-27T10:24:31.108Z,5.79
2023-12-27T10:26:59.410Z,5.78
2023-12-27T10:29:26.120Z,5.88
2023-12-27T10:31:52.922Z,5.92
2023-12-27T10:34:20.322Z,5.89
2023-12-27T10:36:47.103Z,5.92
2023-12-27T10:39:16.557Z,5.82
2023-12-27T10:41:43.706Z,5.93
2023-12-27T10:44:11.778Z,5.85
2023-12-27T10:46:38.731Z,6.01
2023-12-27T10:49:05.594Z,5.94
2023-12-27T10:51:32.598Z,6.06
2023-12-27T10:53:59.726Z,5.92
2023-12-27T10:56:26.618Z,5.90
2023-12-27T10:58:54.146Z,6.13
2023-12-27T11:01:24.660Z,6.00
2023-12-27T11:03:51.679Z,6.22
2023-12-27T11:06:18.611Z,6.29
2023-12-27T11:08:45.542Z,6.33
2023-12-27T11:11:12.308Z,6.45
2023-12-27T11:13:39.037Z,6.64
2023-12-27T11:16:06.272Z,6.75
2023-12-27T11:18:34.766Z,6.77
2023-12-27T11:21:01.598Z,6.87
2023-12-27T11:23:28.432Z,7.06
2023-12-27T11:25:55.727Z,7.17
2023-12-27T11:28:22.489Z,7.34
2023-12-27T11:30:49.280Z,7.30
2023-12-27T11:33:19.933Z,7.29
2023-12-27T11:35:48.147Z,7.47
2023-12-27T11:38:15.253Z,7.64
2023-12-27T11:40:42.184Z,7.74
2023-12-27T11:43:08.920Z,7.83
2023-12-27T11:45:55.911Z,7.97
2023-12-27T11:48:22.820Z,7.79
2023-12-27T11:50:51.089Z,7.70
2023-12-27T11:53:17.819Z,7.86
2023-12-27T11:55:44.624Z,7.98
2023-12-27T11:58:11.328Z,7.95
2023-12-27T12:00:38.322Z,7.99
2023-12-27T12:03:14.304Z,8.07
2023-12-27T12:05:48.824Z,7.84
2023-12-27T12:08:18.631Z,8.23
2023-12-27T12:10:45.457Z,8.41
2023-12-27T12:13:12.177Z,8.52
2023-12-27T12:15:38.971Z,8.59
2023-12-27T12:18:05.979Z,8.87
2023-12-27T12:20:32.816Z,8.83
2023-12-27T12:22:59.755Z,8.78
2023-12-27T12:25:27.877Z,8.80
2023-12-27T12:27:54.805Z,8.91
2023-12-27T12:30:21.734Z,8.62
2023-12-27T12:32:48.525Z,8.83
2023-12-27T12:35:15.432Z,8.96
2023-12-27T12:37:42.155Z,9.02
2023-12-27T12:40:09.512Z,9.17
2023-12-27T12:42:37.723Z,9.21
2023-12-27T12:45:05.106Z,9.18
2023-12-27T12:47:32.409Z,8.95
2023-12-27T12:49:59.341Z,8.88
2023-12-27T12:52:26.289Z,9.11
2023-12-27T12:54:52.973Z,9.18
2023-12-27T12:57:19.706Z,9.23
2023-12-27T12:59:47.990Z,9.08
2023-12-27T13:02:16.368Z,9.16
2023-12-27T13:04:43.254Z,9.33
2023-12-27T13:07:10.978Z,9.45
2023-12-27T13:09:53.908Z,9.50
2023-12-27T13:12:20.824Z,9.38
2023-12-27T13:14:48.920Z,9.19
2023-12-27T13:17:15.700Z,9.20
2023-12-27T13:19:42.448Z,9.22
2023-12-27T13:22:09.326Z,9.25
2023-12-27T13:24:38.142Z,9.26
2023-12-27T13:27:06.464Z,9.21
2023-12-27T13:29:33.218Z,9.30
2023-12-27T13:32:01.252Z,9.19
2023-12-27T13:34:28.169Z,8.90
2023-12-27T13:36:55.107Z,8.90
2023-12-27T13:39:22.028Z,8.92
2023-12-27T13:41:48.810Z,9.05
2023-12-27T13:44:15.507Z,9.10
2023-12-27T13:46:42.197Z,9.27
2023-12-27T13:49:10.447Z,9.29
2023-12-27T13:51:37.580Z,9.60
2023-12-27T13:54:12.492Z,9.55
2023-12-27T13:56:44.850Z,9.63
2023-12-27T13:59:11.692Z,9.97
2023-12-27T14:01:38.559Z,10.26
2023-12-27T14:04:05.560Z,10.31
2023-12-27T14:06:36.559Z,10.39
2023-12-27T14:09:03.999Z,10.50
2023-12-27T14:11:30.709Z,10.47
2023-12-27T14:13:57.492Z,10.41
2023-12-27T14:16:26.853Z,10.68
2023-12-27T14:18:53.752Z,10.70
2023-12-27T14:21:20.750Z,10.87
2023-12-27T14:23:49.296Z,10.73
2023-12-27T14:26:16.028Z,10.77
2023-12-27T14:28:46.689Z,10.74
2023-12-27T14:31:16.544Z,10.65
2023-12-27T14:33:43.748Z,10.64
2023-12-27T14:36:10.648Z,10.55
2023-12-27T14:38:37.670Z,10.57
2023-12-27T14:41:05.875Z,10.51
2023-12-27T14:43:32.833Z,10.26
2023-12-27T14:46:00.932Z,10.20
2023-12-27T14:48:30.424Z,10.10
2023-12-27T14:50:57.172Z,10.23
2023-12-27T14:53:24.033Z,10.27
2023-12-27T14:55:50.747Z,10.06
2023-12-27T14:58:18.833Z,10.03
2023-12-27T15:00:46.213Z,9.89
2023-12-27T15:03:13.123Z,9.61
2023-12-27T15:05:39.934Z,9.57
2023-12-27T15:08:06.859Z,9.70
2023-12-27T15:10:33.592Z,9.71
2023-12-27T15:13:00.805Z,9.74
2023-12-27T15:15:29.052Z,9.55
2023-12-27T15:17:56.194Z,9.32
2023-12-27T15:20:23.081Z,9.14
2023-12-27T15:22:49.800Z,9.00
2023-12-27T15:25:16.528Z,8.92
2023-12-27T15:27:43.316Z,8.84
2023-12-27T15:30:11.623Z,8.74
2023-12-27T15:32:39.787Z,8.61
2023-12-27T15:35:07.732Z,8.73
2023-12-27T15:37:34.438Z,8.65
2023-12-27T15:40:01.191Z,8.49
2023-12-27T15:42:28.007Z,8.45
2023-12-27T15:44:54.739Z,8.57
2023-12-27T15:47:21.536Z,8.69
2023-12-27T15:49:49.734Z,8.69
2023-12-27T15:52:16.542Z,8.68
2023-12-27T15:54:43.333Z,8.64
2023-12-27T15:57:10.339Z,8.46
2023-12-27T15:59:37.284Z,8.45
2023-12-27T16:02:04.222Z,8.48
2023-12-27T16:04:31.123Z,8.51
2023-12-27T16:06:59.337Z,8.40
2023-12-27T16:09:26.080Z,8.26
2023-12-27T16:11:52.994Z,8.13
2023-12-27T16:14:19.882Z,8.13
2023-12-27T16:16:46.655Z,8.16
2023-12-27T16:19:13.652Z,8.14
2023-12-27T16:21:40.897Z,7.97
2023-12-27T16:24:10.133Z,8.01
2023-12-27T16:26:36.921Z,7.84
2023-12-27T16:29:03.863Z,7.89
2023-12-27T16:31:30.978Z,7.87
2023-12-27T16:34:01.046Z,7.83
2023-12-27T16:36:28.161Z,7.91
2023-12-27T16:38:55.062Z,7.94
2023-12-27T16:41:23.316Z,7.92
2023-12-27T16:43:50.115Z,7.95
2023-12-27T16:46:17.038Z,7.98
2023-12-27T16:48:44.141Z,7.94
2023-12-27T16:51:11.010Z,7.92
2023-12-27T16:53:37.841Z,7.74
2023-12-27T16:56:05.215Z,7.74
2023-12-27T16:58:33.434Z,7.70
2023-12-27T17:01:00.185Z,7.56
2023-12-27T17:03:27.174Z,7.54
2023-12-27T17:05:53.974Z,7.54
2023-12-27T17:08:20.740Z,7.49
2023-12-27T17:10:47.458Z,7.46
2023-12-27T17:13:16.622Z,7.41
2023-12-27T17:15:44.946Z,7.38
2023-12-27T17:18:11.901Z,7.36
2023-12-27T17:20:41.823Z,7.29
2023-12-27T17:23:08.644Z,7.35
2023-12-27T17:25:35.327Z,7.36
2023-12-27T17:28:02.544Z,7.36
2023-12-27T17:30:29.611Z,7.34
2023-12-27T17:32:58.060Z,7.33
2023-12-27T17:35:25.254Z,7.27
2023-12-27T17:37:52.097Z,7.25
2023-12-27T17:40:18.810Z,7.11
2023-12-27T17:42:45.637Z,7.00
2023-12-27T17:45:12.850Z,6.90
2023-12-27T17:47:39.810Z,6.71
2023-12-27T17:50:08.871Z,6.62
2023-12-27T17:52:35.629Z,6.62
2023-12-27T17:55:02.350Z,6.67
2023-12-27T17:57:31.837Z,6.67
2023-12-27T17:59:58.619Z,6.71
2023-12-27T18:02:25.359Z,6.68
2023-12-27T18:04:52.112Z,6.63
2023-12-27T18:07:20.131Z,6.64
2023-12-27T18:09:46.865Z,6.63
2023-12-27T18:12:13.620Z,6.57
2023-12-27T18:14:40.372Z,6.58
2023-12-27T18:17:09.582Z,6.59
2023-12-27T18:19:38.987Z,6.62
2023-12-27T18:22:05.736Z,6.42
2023-12-27T18:24:37.361Z,6.40
2023-12-27T18:27:04.602Z,6.18
2023-12-27T18:29:34.574Z,6.16
2023-12-27T18:32:02.427Z,6.25
2023-12-27T18:34:29.155Z,6.30
2023-12-27T18:36:55.968Z,6.30
2023-12-27T18:39:22.748Z,6.23
2023-12-27T18:41:50.806Z,5.99
2023-12-27T18:44:17.532Z,6.06
2023-12-27T18:46:44.305Z,6.11
2023-12-27T18:49:11.192Z,6.13
2023-12-27T18:51:38.015Z,6.23
2023-12-27T18:54:04.721Z,6.14
2023-12-27T18:56:31.463Z,6.27
2023-12-27T18:58:59.594Z,6.25
2023-12-27T19:01:26.316Z,6.18
2023-12-27T19:03:53.013Z,6.20
2023-12-27T19:06:19.779Z,6.27
2023-12-27T19:08:46.509Z,6.39
2023-12-27T19:11:13.242Z,6.35
2023-12-27T19:13:39.977Z,6.40
2023-12-27T19:16:08.251Z,6.46
2023-12-27T19:18:35.549Z,6.41
2023-12-27T19:21:02.387Z,6.35
2023-12-27T19:23:29.157Z,6.34
2023-12-27T19:25:55.913Z,6.20
2023-12-27T19:28:22.736Z,6.22
2023-12-27T19:30:49.557Z,6.08
2023-12-27T19:33:17.835Z,6.27
2023-12-27T19:35:44.826Z,6.10
2023-12-27T19:38:11.562Z,6.22
2023-12-27T19:40:38.315Z,6.16
2023-12-27T19:43:04.970Z,6.28
2023-12-27T19:45:31.803Z,6.24
2023-12-27T19:47:58.826Z,6.04
2023-12-27T19:50:27.218Z,6.22
2023-12-27T19:52:53.937Z,6.30
2023-12-27T19:55:20.697Z,6.25
2023-12-27T19:57:47.558Z,6.21
2023-12-27T20:00:14.739Z,6.29
2023-12-27T20:02:41.567Z,6.29
2023-12-27T20:05:08.882Z,6.40
2023-12-27T20:07:36.933Z,6.33
2023-12-27T20:10:03.754Z,6.30
2023-12-27T20:12:31.154Z,6.41
2023-12-27T20:14:59.391Z,6.40
2023-12-27T20:17:26.232Z,6.42
2023-12-27T20:19:53.225Z,6.43
2023-12-27T20:22:20.027Z,6.50
2023-12-27T20:24:48.229Z,6.06
2023-12-27T20:27:15.250Z,6.24
2023-12-27T20:29:42.099Z,6.04
2023-12-27T20:32:08.894Z,6.29
2023-12-27T20:34:35.800Z,6.51
2023-12-27T20:37:02.682Z,6.50
2023-12-27T20:39:29.519Z,6.69
2023-12-27T20:41:58.332Z,6.59
2023-12-27T20:44:25.469Z,6.72
2023-12-27T20:46:52.224Z,6.41
2023-12-27T20:49:19.081Z,6.63
2023-12-27T20:51:46.170Z,6.94
2023-12-27T20:54:13.054Z,6.86
2023-12-27T20:56:40.132Z,6.82
2023-12-27T20:59:09.754Z,7.00
2023-12-27T21:01:38.766Z,6.83
2023-12-27T21:04:05.672Z,6.96
2023-12-27T21:06:32.566Z,6.98
2023-12-27T21:08:59.723Z,7.02
2023-12-27T21:11:26.790Z,7.09
2023-12-27T21:13:53.510Z,6.99
2023-12-27T21:16:22.317Z,6.81
2023-12-27T21:18:49.212Z,6.97
2023-12-27T21:21:16.112Z,6.88
2023-12-27T21:23:42.877Z,6.91
2023-12-27T21:26:16.492Z,7.14
2023-12-27T21:28:44.053Z,7.25
2023-12-27T21:31:11.228Z,7.16
2023-12-27T21:33:39.497Z,7.30
2023-12-27T21:36:06.685Z,7.25
2023-12-27T21:38:33.438Z,7.33
2023-12-27T21:41:00.171Z,7.33
2023-12-27T21:43:27.049Z,7.03
2023-12-27T21:45:53.883Z,7.17
2023-12-27T21:48:20.704Z,7.32
2023-12-27T21:50:48.839Z,7.52
2023-12-27T21:53:15.695Z,7.58
2023-12-27T21:55:42.699Z,7.61
2023-12-27T21:58:09.396Z,7.57
2023-12-27T22:00:36.240Z,7.46
2023-12-27T22:03:03.292Z,7.40
2023-12-27T22:05:30.297Z,7.41
2023-12-27T22:08:07.336Z,7.51
2023-12-27T22:10:37.230Z,7.53
2023-12-27T22:13:04.345Z,7.35
2023-12-27T22:15:31.163Z,7.37
2023-12-27T22:17:58.184Z,7.45
2023-12-27T22:20:28.125Z,7.42
2023-12-27T22:22:54.908Z,7.33
2023-12-27T22:25:22.959Z,7.41
2023-12-27T22:27:49.761Z,7.42
2023-12-27T22:30:16.698Z,7.53
2023-12-27T22:32:43.538Z,7.46
2023-12-27T22:35:10.513Z,7.55
2023-12-27T22:37:37.251Z,7.60
2023-12-27T22:40:04.305Z,7.54
2023-12-27T22:42:32.541Z,7.54
2023-12-27T22:44:59.249Z,7.53
2023-12-27T22:47:26.113Z,7.46
2023-12-27T22:49:53.031Z,7.47
2023-12-27T22:52:19.925Z,7.56
2023-12-27T22:54:46.706Z,7.66
2023-12-27T22:57:13.466Z,7.57
2023-12-27T22:59:41.508Z,7.41
2023-12-27T23:02:08.487Z,7.52
2023-12-27T23:04:35.350Z,7.52
2023-12-27T23:07:02.217Z,7.48
2023-12-27T23:09:28.991Z,7.57
2023-12-27T23:11:55.738Z,7.62
2023-12-27T23:14:22.582Z,7.57
2023-12-27T23:16:50.689Z,7.51
2023-12-27T23:19:17.656Z,7.63
2023-12-27T23:21:44.470Z,7.56
2023-12-27T23:24:11.244Z,7.53
2023-12-27T23:26:37.980Z,7.57
2023-12-27T23:29:04.748Z,7.55
2023-12-27T23:31:31.731Z,7.31
2023-12-27T23:34:00.112Z,7.38
2023-12-27T23:36:26.896Z,7.38
2023-12-27T23:38:53.725Z,7.41
2023-12-27T23:41:20.430Z,7.42
2023-12-27T23:43:47.142Z,7.56
2023-12-27T23:46:13.813Z,7.59
2023-12-27T23:48:40.667Z,7.69
2023-12-27T23:51:08.844Z,7.79
2023-12-27T23:53:35.631Z,7.72
2023-12-27T23:56:02.354Z,7.76
2023-12-27T23:58:29.066Z,7.53
